Terminal Aerodrome Forecast
Issued by NWS

Home | Current Version | Previous Version | Text Only | Print | Product List | Glossary On
Versions: 1 2 3 4 5 6 7 8 9 10 11 12
000
FTUS44 KOUN 272320
TAFWWR
TAF
KWWR 272320Z 2800/2824 13014KT P6SM BKN250
     FM281400 16016G24KT P6SM SCT060 SCT250=

USA.gov is the U.S. government's official web portal to all federal, state and local government web resources and services.